CheckWX is a tool to help pilots better visualize weather data.  It is not intended as a substitute for an official pre-flight weather briefing.

08:01:33 UTC

LPST TAF
Sintra Airport
Portugal
TAF AMD LPST 190704Z 1907/1915 VRB02KT CAVOK BECMG 1909/1911 02008KT

Mar-19@
07:00 UTC

Mar-19 @ 07:00 UTC

Mar-19@
09:00 UTC

Mar-19 @ 09:00 UTC

TAF AMD LPST 190704Z 1907/1915 VRB02KT CAVOK
Wind
  • Variable at 2 KTS
Conditions
No significant weather
Cloud Levels
  • No significant clouds

Mar-19@
09:00 UTC

Mar-19 @ 09:00 UTC

Mar-19@
15:00 UTC

Mar-19 @ 15:00 UTC

BECMG 1909/1911 02008KT

Becoming

Becoming Conditions expected by Tue, Mar 19, 2019 @ 11:00 UTC

Wind
  • 020° at 8 KTS
Conditions
No significant weather
Cloud Levels
  • No significant clouds